KBNA/BNA METAR and TAF weather

Enter ICAO airport designator
Station Type Date Time Source
KBNA METAR 2021/05/12 01:53 UTC NOAA

KBNA 120153Z 03014KT 10SM OVC150 17/06 A3015 RMK AO2 SLP208 T01720056


Station Type Date Time Source
KBNA Decoded METAR 2021/05/12 01:53 UTC NOAA

NASHVILLE INTERNATIONAL AIRPORT, TN, United States (KBNA) 36-07N 086-41W 210M
May 11, 2021 - 09:53 PM EDT / 2021.05.12 0153 UTC
Wind: from the NNE (030 degrees) at 16 MPH (14 KT):0
Visibility: 10 mile(s):0
Sky conditions: overcast
Temperature: 63.0 F (17.2 C)
Dew Point: 42.1 F (5.6 C)
Relative Humidity: 46%
Pressure (altimeter): 30.15 in. Hg (1020 hPa)
ob: KBNA 120153Z 03014KT 10SM OVC150 17/06 A3015 RMK AO2 SLP208 T01720056
cycle: 2

Station Type Date Time Source
KBNA TAF 2021/05/11 18:59 UTC NOAA

TAF
AMD KBNA 111759Z 1118/1218 06010KT P6SM SKC
FM120100 03012G20KT P6SM VCSH OVC080
FM120600 02012G22KT P6SM OVC050
FM121400 03015G25KT P6SM BKN050
FM121600 04013G23KT P6SM SCT050

Example: see airport list